Time;durP1;ratioP1;P1;durP2;ratioP2;P2;SDS_P1;SDS_P2;PMS_P1;PMS_P2;Temp;Humidity;BMP_temperature;BMP_pressure;BME280_temperature;BME280_humidity;BME280_pressure;Samples;Min_cycle;Max_cycle;Signal;HPM_P1;HPM_P2
2023/06/16 00:00:38;;;;;;;8.40;4.85;;;;;;;15.59;70.83;101851.25;4841654;29;20424;-78
2023/06/16 00:03:04;;;;;;;10.95;4.95;;;;;;;15.49;71.58;101851.88;4841536;29;20397;-80
2023/06/16 00:05:30;;;;;;;7.93;5.20;;;;;;;15.43;72.02;101843.63;4841434;29;20034;-77
2023/06/16 00:08:00;;;;;;;7.65;4.63;;;;;;;15.16;73.19;101808.13;4841437;29;20378;-79
2023/06/16 00:10:26;;;;;;;7.30;4.75;;;;;;;15.33;72.82;101833.00;4841869;29;20424;-78
2023/06/16 00:12:51;;;;;;;8.20;4.90;;;;;;;15.31;72.98;101840.06;4841739;29;20086;-78
2023/06/16 00:15:17;;;;;;;7.30;5.00;;;;;;;15.20;72.92;101840.78;4841795;29;20355;-78
2023/06/16 00:17:46;;;;;;;9.50;4.93;;;;;;;15.20;72.98;101843.41;4841175;29;20097;-78
2023/06/16 00:20:14;;;;;;;12.52;5.80;;;;;;;15.03;73.48;101828.06;4841603;29;20066;-78
2023/06/16 00:22:41;;;;;;;10.15;5.30;;;;;;;15.10;74.00;101841.50;4841419;29;20034;-78
2023/06/16 00:25:09;;;;;;;8.95;5.00;;;;;;;15.06;74.24;101843.50;4841404;29;20030;-79
2023/06/16 00:27:35;;;;;;;10.55;5.80;;;;;;;14.95;75.20;101839.94;4841403;29;20363;-78
2023/06/16 00:30:03;;;;;;;8.48;5.43;;;;;;;14.92;75.67;101843.53;4840167;29;20042;-78
2023/06/16 00:32:28;;;;;;;8.32;5.75;;;;;;;14.59;75.57;101797.16;4841245;29;20438;-78
2023/06/16 00:34:54;;;;;;;11.70;5.55;;;;;;;14.83;75.41;101846.72;4841181;29;20062;-78
2023/06/16 00:37:19;;;;;;;9.13;5.30;;;;;;;14.77;75.19;101847.16;4841348;29;20045;-79
2023/06/16 00:39:44;;;;;;;7.53;5.07;;;;;;;14.77;75.86;101847.16;4841589;29;20026;-78
2023/06/16 00:42:09;;;;;;;7.78;5.05;;;;;;;14.58;75.63;101821.50;4841458;29;20117;-79
2023/06/16 00:44:35;;;;;;;10.05;5.45;;;;;;;14.52;75.97;101819.28;4841357;29;20033;-78
2023/06/16 00:47:01;;;;;;;10.18;5.18;;;;;;;14.58;75.89;101840.53;4840990;29;20054;-78
2023/06/16 00:49:26;;;;;;;9.35;5.20;;;;;;;14.51;76.14;101830.59;4841196;29;20060;-79
2023/06/16 00:51:52;;;;;;;7.63;5.70;;;;;;;14.35;76.53;101826.34;4841134;29;20030;-78
2023/06/16 00:54:17;;;;;;;9.18;5.35;;;;;;;14.45;76.99;101838.78;4840066;29;20068;-78
2023/06/16 00:56:44;;;;;;;9.40;5.40;;;;;;;14.40;77.27;101843.41;4841199;29;20394;-79
2023/06/16 00:59:09;;;;;;;7.30;5.25;;;;;;;14.32;77.53;101831.72;4843622;29;20049;-79
2023/06/16 01:01:34;;;;;;;10.38;5.05;;;;;;;14.22;77.75;101815.03;4844275;29;20034;-78
2023/06/16 01:04:00;;;;;;;9.90;6.20;;;;;;;14.08;78.04;101809.88;4844329;29;20029;-78
2023/06/16 01:06:41;;;;;;;9.45;5.43;;;;;;;14.21;78.34;101833.34;4844346;29;20155;-78
2023/06/16 01:09:32;;;;;;;7.97;5.13;;;;;;;14.19;77.92;101827.41;4844147;29;20045;-78
2023/06/16 01:12:07;;;;;;;8.60;5.78;;;;;;;14.08;78.85;101830.66;4844459;29;20390;-78
2023/06/16 01:14:53;;;;;;;7.15;5.68;;;;;;;14.00;79.13;101825.94;4844182;29;20042;-78
2023/06/16 01:17:22;;;;;;;8.57;5.30;;;;;;;13.94;79.43;101835.84;4844100;29;20037;-79
2023/06/16 01:20:01;;;;;;;10.45;6.00;;;;;;;13.91;79.45;101828.25;4844114;29;20030;-78
2023/06/16 01:22:42;;;;;;;8.30;5.57;;;;;;;13.82;79.57;101819.28;4844199;29;20042;-79
2023/06/16 01:25:13;;;;;;;12.75;6.32;;;;;;;13.65;79.91;101803.88;4844050;29;20062;-79
2023/06/16 01:27:47;;;;;;;9.75;5.97;;;;;;;13.55;80.01;101803.59;4843977;29;20507;-78
2023/06/16 01:30:14;;;;;;;8.35;5.93;;;;;;;13.68;80.45;101829.66;4844037;29;20026;-78
2023/06/16 01:32:40;;;;;;;8.68;5.72;;;;;;;13.64;80.72;101833.34;4844070;29;20425;-78
2023/06/16 01:35:06;;;;;;;9.32;6.22;;;;;;;13.58;80.80;101833.72;4843708;29;20026;-79
2023/06/16 01:37:31;;;;;;;8.82;5.75;;;;;;;13.58;80.70;101834.56;4843722;29;20034;-78
2023/06/16 01:39:57;;;;;;;7.85;5.82;;;;;;;13.40;81.18;101812.31;4843765;29;20126;-79
2023/06/16 01:42:24;;;;;;;9.60;6.15;;;;;;;13.47;81.68;101829.19;4843511;29;20040;-79
2023/06/16 01:44:49;;;;;;;9.13;5.93;;;;;;;13.44;81.41;101822.41;4843667;29;20586;-78
2023/06/16 01:47:15;;;;;;;8.90;5.60;;;;;;;13.36;81.86;101819.41;4843415;29;20133;-79
2023/06/16 01:49:40;;;;;;;8.90;5.65;;;;;;;13.39;82.03;101826.19;4843555;29;20415;-78
2023/06/16 01:52:07;;;;;;;8.75;6.18;;;;;;;13.34;82.43;101821.25;4843513;29;20041;-78
2023/06/16 01:54:32;;;;;;;7.55;5.90;;;;;;;13.30;82.40;101821.56;4843462;29;20439;-79
2023/06/16 01:56:58;;;;;;;8.85;6.03;;;;;;;13.27;81.78;101817.34;4843363;29;20044;-78
2023/06/16 01:59:23;;;;;;;9.60;5.65;;;;;;;13.25;82.33;101818.38;4842031;29;20052;-79
2023/06/16 02:01:52;;;;;;;7.90;5.95;;;;;;;13.19;82.86;101815.22;4843726;29;20056;-78
2023/06/16 02:04:22;;;;;;;9.65;5.90;;;;;;;13.12;82.57;101813.03;4843534;29;20038;-80
2023/06/16 02:06:59;;;;;;;9.18;6.07;;;;;;;13.16;82.02;101823.13;4843421;29;20034;-78
2023/06/16 02:09:27;;;;;;;10.55;6.32;;;;;;;13.25;81.40;101821.81;4842592;29;20508;-78
2023/06/16 02:11:54;;;;;;;11.10;6.65;;;;;;;13.12;81.95;101807.84;4842924;29;20026;-78
2023/06/16 02:14:20;;;;;;;10.95;6.45;;;;;;;13.20;81.31;101813.47;4843461;29;20026;-79
2023/06/16 02:16:46;;;;;;;10.30;6.38;;;;;;;13.09;80.35;101801.09;4843120;29;20049;-78
2023/06/16 02:19:12;;;;;;;11.57;6.88;;;;;;;12.77;80.70;101761.44;4843138;29;20038;-79
2023/06/16 02:21:38;;;;;;;10.50;6.88;;;;;;;13.16;81.03;101817.94;4843069;29;20312;-78
2023/06/16 02:24:04;;;;;;;10.88;6.90;;;;;;;12.99;80.57;101783.56;4841519;29;20448;-78
2023/06/16 02:26:30;;;;;;;9.48;6.63;;;;;;;13.14;80.34;101817.22;4841829;29;20375;-80
2023/06/16 02:28:56;;;;;;;8.55;6.20;;;;;;;13.09;80.60;101818.41;4842781;29;20058;-79
2023/06/16 02:31:21;;;;;;;8.98;6.35;;;;;;;13.14;80.44;101826.75;4842931;29;20029;-79
2023/06/16 02:33:49;;;;;;;10.63;6.50;;;;;;;13.18;79.79;101823.06;4842744;29;20026;-80
2023/06/16 02:36:16;;;;;;;11.73;6.82;;;;;;;12.73;79.67;101751.34;4842820;29;20030;-79
2023/06/16 02:38:41;;;;;;;10.95;6.57;;;;;;;13.23;78.89;101822.81;4842646;29;20030;-80
2023/06/16 02:41:07;;;;;;;9.18;6.55;;;;;;;13.16;79.21;101817.94;4842713;29;20082;-79
2023/06/16 02:43:32;;;;;;;12.52;7.05;;;;;;;13.10;79.46;101827.84;4842471;29;20047;-79
2023/06/16 02:45:59;;;;;;;11.75;7.00;;;;;;;13.09;79.63;101823.59;4842772;29;20022;-79
2023/06/16 02:48:24;;;;;;;9.27;6.38;;;;;;;13.04;79.60;101825.59;4842562;29;20456;-78
2023/06/16 02:50:50;;;;;;;10.07;6.82;;;;;;;13.04;79.00;101823.84;4842574;29;20026;-78
2023/06/16 02:53:18;;;;;;;10.13;6.75;;;;;;;12.97;79.86;101829.47;4842502;29;20026;-79
2023/06/16 02:55:46;;;;;;;10.82;6.55;;;;;;;12.84;79.85;101799.06;4842355;29;20113;-79
2023/06/16 02:58:11;;;;;;;11.90;6.95;;;;;;;12.80;79.51;101807.13;4842319;29;20493;-80
2023/06/16 03:00:37;;;;;;;9.13;6.53;;;;;;;12.90;80.23;101826.41;4842574;29;20109;-79
2023/06/16 03:03:02;;;;;;;9.35;6.35;;;;;;;12.86;79.81;101822.31;4842367;29;20387;-80
2023/06/16 03:05:28;;;;;;;11.82;6.63;;;;;;;12.71;80.22;101799.84;4842210;29;20116;-79
2023/06/16 03:07:53;;;;;;;11.32;6.95;;;;;;;12.53;80.02;101788.75;4842104;29;20034;-79
2023/06/16 03:10:19;;;;;;;9.57;6.47;;;;;;;12.74;80.87;101825.59;4842412;29;20033;-79
2023/06/16 03:12:45;;;;;;;7.80;6.47;;;;;;;12.54;81.00;101799.03;4842024;29;20037;-79
2023/06/16 03:15:10;;;;;;;9.63;6.32;;;;;;;12.67;81.48;101827.69;4842036;29;20061;-79
2023/06/16 03:17:36;;;;;;;8.82;5.93;;;;;;;12.64;82.06;101826.09;4842056;29;20064;-79
2023/06/16 03:20:03;;;;;;;10.65;6.00;;;;;;;12.58;81.06;101829.03;4840581;29;20030;-78
2023/06/16 03:22:29;;;;;;;9.57;6.63;;;;;;;12.56;81.17;101823.09;4842089;29;20065;-78
2023/06/16 03:25:02;;;;;;;9.18;6.75;;;;;;;12.58;81.04;101823.84;4840749;29;20068;-78
2023/06/16 03:27:31;;;;;;;11.48;6.68;;;;;;;12.42;81.63;101819.59;4841874;29;20030;-78
2023/06/16 03:29:57;;;;;;;9.30;6.82;;;;;;;12.45;82.07;101829.78;4841896;29;20368;-79
2023/06/16 03:32:22;;;;;;;10.45;6.68;;;;;;;12.25;82.31;101798.03;4842083;29;20030;-79
2023/06/16 03:34:48;;;;;;;11.93;6.85;;;;;;;12.37;81.90;101824.19;4841702;29;20034;-80
2023/06/16 03:37:14;;;;;;;9.88;6.45;;;;;;;12.34;82.09;101822.59;4842043;29;20026;-80
2023/06/16 03:39:40;;;;;;;11.10;7.05;;;;;;;12.36;81.82;101831.13;4841826;29;20423;-80
2023/06/16 03:42:06;;;;;;;8.73;5.95;;;;;;;12.22;82.02;101816.34;4840343;29;20042;-79
2023/06/16 03:44:31;;;;;;;11.05;6.88;;;;;;;12.25;82.01;101829.13;4841691;29;20126;-79
2023/06/16 03:46:56;;;;;;;10.60;6.55;;;;;;;12.25;82.34;101823.94;4841841;29;20050;-79
2023/06/16 03:49:22;;;;;;;10.95;7.05;;;;;;;12.25;82.73;101834.31;4841601;29;20034;-78
2023/06/16 03:51:47;;;;;;;9.18;6.45;;;;;;;12.29;82.90;101838.41;4841781;29;20513;-81
2023/06/16 03:54:13;;;;;;;9.68;6.63;;;;;;;12.27;82.86;101832.47;4841578;29;20479;-78
2023/06/16 03:56:39;;;;;;;10.15;7.15;;;;;;;12.02;82.93;101795.88;4841618;29;20066;-80
2023/06/16 03:59:04;;;;;;;9.77;7.13;;;;;;;12.17;82.92;101825.28;4841533;29;20038;-78
2023/06/16 04:01:31;;;;;;;9.50;7.30;;;;;;;12.30;82.82;101839.25;4840490;29;20034;-80
2023/06/16 04:03:57;;;;;;;10.25;7.28;;;;;;;12.31;82.90;101844.34;4841510;29;20048;-79
2023/06/16 04:06:22;;;;;;;11.90;7.10;;;;;;;12.28;83.23;101823.75;4841786;29;20034;-79
2023/06/16 04:08:47;;;;;;;9.73;7.22;;;;;;;12.21;83.77;101795.72;4841544;29;20038;-79
2023/06/16 04:11:15;;;;;;;11.52;7.40;;;;;;;12.21;83.32;101799.16;4841634;29;20135;-80
2023/06/16 04:13:43;;;;;;;9.75;7.10;;;;;;;12.38;83.90;101818.09;4841412;29;20052;-79
2023/06/16 04:16:08;;;;;;;12.85;8.02;;;;;;;12.60;85.17;101819.44;4841653;29;20157;-80
2023/06/16 04:18:35;;;;;;;12.43;7.97;;;;;;;12.87;83.91;101837.75;4841555;29;20116;-80
2023/06/16 04:21:00;;;;;;;12.00;7.57;;;;;;;13.07;83.35;101825.41;4840178;29;20117;-81
2023/06/16 04:23:25;;;;;;;11.32;8.00;;;;;;;13.31;82.64;101843.97;4841577;29;20514;-80
2023/06/16 04:25:52;;;;;;;10.90;7.28;;;;;;;13.49;81.96;101848.91;4841596;29;20030;-80
2023/06/16 04:28:18;;;;;;;11.02;7.00;;;;;;;13.64;81.93;101838.53;4841333;29;20467;-80
2023/06/16 04:30:44;;;;;;;14.13;8.05;;;;;;;13.79;80.30;101840.22;4841449;29;20030;-82
2023/06/16 04:33:10;;;;;;;11.35;8.30;;;;;;;13.71;79.69;101803.50;4842616;29;20037;-81
2023/06/16 04:35:36;;;;;;;11.60;7.70;;;;;;;13.98;79.60;101820.00;4844901;29;20420;-80
2023/06/16 04:38:02;;;;;;;11.10;7.70;;;;;;;14.28;78.63;101845.03;4844903;29;20375;-80
2023/06/16 04:40:29;;;;;;;11.00;7.85;;;;;;;14.17;78.27;101813.69;4844770;29;20118;-81
2023/06/16 04:42:55;;;;;;;11.35;8.15;;;;;;;14.37;78.24;101817.63;4843618;29;20030;-80
2023/06/16 04:45:22;;;;;;;13.13;7.57;;;;;;;14.68;77.54;101856.38;4844571;29;20067;-80
2023/06/16 04:47:50;;;;;;;10.77;7.57;;;;;;;14.73;77.37;101856.88;4844417;29;20046;-80
2023/06/16 04:50:16;;;;;;;12.95;7.63;;;;;;;14.46;77.31;101810.13;4844590;29;20033;-81
2023/06/16 04:52:45;;;;;;;11.77;8.05;;;;;;;14.81;77.90;101851.19;4847485;29;20434;-82
2023/06/16 04:55:11;;;;;;;12.77;8.23;;;;;;;14.79;77.96;101838.31;4863781;29;20033;-82
2023/06/16 04:57:36;;;;;;;10.82;7.90;;;;;;;14.85;77.81;101816.28;4863510;29;20393;-80
2023/06/16 05:00:07;;;;;;;9.80;7.13;;;;;;;15.40;75.38;101846.44;4862791;29;20087;-81
2023/06/16 05:02:33;;;;;;;10.35;8.18;;;;;;;15.50;75.50;101847.50;4861576;29;20132;-81
2023/06/16 05:04:58;;;;;;;10.02;7.57;;;;;;;15.76;74.08;101830.97;4862517;29;20074;-81
2023/06/16 05:07:24;;;;;;;12.77;7.32;;;;;;;16.31;72.08;101849.72;4862799;29;20068;-82
2023/06/16 05:09:49;;;;;;;11.40;7.65;;;;;;;16.64;70.96;101851.72;4862778;29;20038;-80
2023/06/16 05:12:14;;;;;;;12.10;8.10;;;;;;;17.01;68.44;101847.28;4862870;29;20494;-80
2023/06/16 05:14:40;;;;;;;11.40;8.00;;;;;;;17.31;67.24;101853.78;4862471;29;20078;-80
2023/06/16 05:17:05;;;;;;;10.38;8.32;;;;;;;17.61;64.95;101835.78;4862647;29;20061;-81
2023/06/16 05:19:32;;;;;;;11.68;8.05;;;;;;;18.06;64.58;101854.91;4862767;29;20105;-81
2023/06/16 05:21:58;;;;;;;11.68;7.90;;;;;;;18.67;62.14;101856.25;4862371;29;20040;-80
2023/06/16 05:24:23;;;;;;;9.38;6.20;;;;;;;19.45;59.16;101851.47;4862680;29;20025;-80
2023/06/16 05:26:48;;;;;;;8.45;5.93;;;;;;;20.25;56.40;101857.75;4862431;29;20393;-81
2023/06/16 05:29:14;;;;;;;12.20;8.20;;;;;;;20.98;52.18;101861.72;4862395;29;20034;-80
2023/06/16 05:31:39;;;;;;;11.05;7.03;;;;;;;21.50;51.44;101849.09;4862230;29;20033;-80
2023/06/16 05:34:04;;;;;;;12.80;7.20;;;;;;;22.34;48.91;101846.38;4862426;29;20053;-80
2023/06/16 05:36:34;;;;;;;10.48;7.75;;;;;;;23.30;47.51;101857.91;4862048;29;20034;-81
2023/06/16 05:39:00;;;;;;;10.82;6.82;;;;;;;24.08;44.19;101855.19;4862211;29;20029;-79
2023/06/16 05:41:26;;;;;;;11.82;6.78;;;;;;;24.83;42.90;101858.66;4862282;29;20026;-80
2023/06/16 05:43:51;;;;;;;11.63;7.68;;;;;;;25.21;41.47;101848.44;4861338;29;20466;-80
2023/06/16 05:46:17;;;;;;;10.93;7.45;;;;;;;25.53;40.29;101854.66;4861383;29;20094;-80
2023/06/16 05:48:42;;;;;;;12.20;7.85;;;;;;;25.88;39.32;101861.34;4861771;29;20124;-78
2023/06/16 05:51:08;;;;;;;11.40;7.35;;;;;;;26.22;39.35;101850.41;4861814;29;20042;-79
2023/06/16 05:53:33;;;;;;;11.48;8.18;;;;;;;26.70;38.44;101859.06;4862021;29;20032;-79
2023/06/16 05:55:58;;;;;;;15.55;8.90;;;;;;;27.01;37.80;101856.31;4861854;29;20436;-79
2023/06/16 05:58:24;;;;;;;10.25;7.68;;;;;;;27.60;36.02;101841.28;4862039;29;20033;-79
2023/06/16 06:00:49;;;;;;;11.27;8.45;;;;;;;27.92;34.96;101849.88;4861758;29;20076;-82
2023/06/16 06:03:14;;;;;;;10.05;6.88;;;;;;;28.02;34.95;101861.03;4862001;29;20021;-81
2023/06/16 06:05:40;;;;;;;11.07;8.02;;;;;;;27.82;34.54;101847.53;4861661;29;20029;-81
2023/06/16 06:08:05;;;;;;;14.02;8.70;;;;;;;27.66;35.13;101864.47;4861819;29;20101;-80
2023/06/16 06:10:30;;;;;;;11.90;8.40;;;;;;;28.40;34.54;101860.88;4850012;29;20078;-79
2023/06/16 06:12:56;;;;;;;11.57;8.20;;;;;;;28.92;33.83;101863.25;4843497;29;20120;-79
2023/06/16 06:15:21;;;;;;;13.18;7.65;;;;;;;29.25;32.23;101862.66;4844187;29;20111;-82
2023/06/16 06:17:47;;;;;;;16.83;8.52;;;;;;;28.97;33.26;101863.47;4841957;29;20038;-82
2023/06/16 06:20:12;;;;;;;13.13;7.82;;;;;;;29.59;31.67;101867.97;4843135;29;20045;-80
2023/06/16 06:22:37;;;;;;;10.38;6.78;;;;;;;29.88;31.26;101858.91;4843119;29;20117;-81
2023/06/16 06:25:04;;;;;;;9.20;6.97;;;;;;;30.35;30.13;101880.41;4842839;29;20033;-81
2023/06/16 06:27:30;;;;;;;11.32;7.43;;;;;;;30.35;30.75;101873.22;4842992;29;20082;-84
2023/06/16 06:29:55;;;;;;;10.23;7.13;;;;;;;30.46;29.22;101880.63;4842843;29;20054;-81
2023/06/16 06:32:20;;;;;;;9.88;6.22;;;;;;;30.80;28.99;101879.66;4842911;29;20037;-83
2023/06/16 06:34:46;;;;;;;9.70;7.30;;;;;;;30.99;29.31;101880.69;4842886;29;20030;-81
2023/06/16 06:37:18;;;;;;;11.38;7.75;;;;;;;30.45;28.52;101854.16;4842894;29;20030;-80
2023/06/16 06:39:44;;;;;;;8.40;6.28;;;;;;;30.08;29.76;101884.81;4842932;29;20034;-83
2023/06/16 06:42:12;;;;;;;8.90;6.95;;;;;;;30.20;30.39;101894.72;4842834;29;20466;-81
2023/06/16 06:44:37;;;;;;;10.32;7.18;;;;;;;31.12;28.48;101870.00;4841549;29;20091;-81
2023/06/16 06:47:03;;;;;;;9.77;7.45;;;;;;;31.33;28.73;101866.31;4842371;29;20054;-83
2023/06/16 06:49:28;;;;;;;10.80;6.90;;;;;;;31.93;27.70;101882.16;4842588;29;20054;-81
2023/06/16 06:51:53;;;;;;;11.85;7.10;;;;;;;32.31;27.10;101865.31;4858199;29;20049;-80
2023/06/16 06:54:19;;;;;;;14.05;7.57;;;;;;;32.52;25.90;101883.69;4861773;29;20533;-80
2023/06/16 06:56:44;;;;;;;9.77;7.03;;;;;;;31.50;26.76;101853.31;4860706;29;20032;-81
2023/06/16 06:59:10;;;;;;;10.40;6.75;;;;;;;31.36;27.26;101887.22;4861040;29;20041;-81
2023/06/16 07:01:35;;;;;;;10.10;6.18;;;;;;;31.73;27.07;101858.16;4861136;29;20054;-81
2023/06/16 07:04:00;;;;;;;10.05;6.68;;;;;;;32.08;26.56;101890.72;4860502;29;20390;-84
2023/06/16 07:06:26;;;;;;;9.18;6.43;;;;;;;32.59;25.85;101886.31;4860812;29;20034;-81
2023/06/16 07:08:51;;;;;;;7.05;6.18;;;;;;;32.50;26.08;101891.94;4861001;29;20029;-81
2023/06/16 07:11:16;;;;;;;9.65;7.07;;;;;;;31.96;26.13;101887.91;4861049;29;20516;-81
2023/06/16 07:13:41;;;;;;;11.52;6.85;;;;;;;32.22;26.34;101889.59;4860920;29;20518;-81
2023/06/16 07:16:07;;;;;;;9.85;5.78;;;;;;;32.05;25.83;101884.97;4860740;29;20070;-81
2023/06/16 07:18:32;;;;;;;8.98;5.88;;;;;;;32.17;25.29;101891.28;4860479;29;20486;-79
2023/06/16 07:20:57;;;;;;;8.35;5.78;;;;;;;32.79;24.28;101882.44;4860246;29;20037;-79
2023/06/16 07:23:25;;;;;;;9.27;6.28;;;;;;;32.56;24.48;101890.25;4860569;29;20496;-79
2023/06/16 07:25:51;;;;;;;10.43;6.50;;;;;;;31.96;24.71;101893.25;4860545;29;20125;-78
2023/06/16 07:28:16;;;;;;;9.35;5.93;;;;;;;31.76;25.72;101889.00;4860520;29;20510;-78
2023/06/16 07:30:42;;;;;;;9.52;5.78;;;;;;;31.93;26.08;101892.84;4860561;29;20030;-80
2023/06/16 07:33:08;;;;;;;7.63;5.35;;;;;;;32.73;25.13;101896.69;4860315;29;20040;-76
2023/06/16 07:35:34;;;;;;;8.52;5.72;;;;;;;33.06;25.40;101901.81;4860072;29;20050;-77
2023/06/16 07:37:59;;;;;;;8.70;5.05;;;;;;;33.57;23.71;101870.44;4860387;29;20034;-78
2023/06/16 07:40:25;;;;;;;8.27;4.72;;;;;;;33.60;23.40;101897.56;4860554;29;20036;-74
2023/06/16 07:42:50;;;;;;;9.38;4.97;;;;;;;32.42;23.78;101889.50;4860565;29;20060;-76
2023/06/16 07:45:17;;;;;;;10.15;4.90;;;;;;;30.23;27.13;101901.47;4860443;29;20038;-77
2023/06/16 07:47:43;;;;;;;9.05;5.07;;;;;;;28.29;28.29;101902.88;4859752;29;20057;-74
2023/06/16 07:50:10;;;;;;;8.13;4.80;;;;;;;27.18;30.36;101888.84;4860321;29;20040;-78
2023/06/16 07:52:36;;;;;;;9.77;4.72;;;;;;;26.27;31.84;101885.16;4860094;29;20045;-78
2023/06/16 07:55:01;;;;;;;9.15;4.78;;;;;;;25.91;34.24;101898.88;4858663;29;20037;-77
2023/06/16 07:57:27;;;;;;;7.45;4.35;;;;;;;25.73;32.05;101898.25;4860359;29;20367;-76
2023/06/16 07:59:52;;;;;;;8.40;4.25;;;;;;;24.83;32.61;101866.59;4843733;29;20069;-77
2023/06/16 08:02:18;;;;;;;7.50;4.18;;;;;;;24.53;33.95;101894.47;4860012;29;20033;-79
2023/06/16 08:04:43;;;;;;;7.00;4.15;;;;;;;24.64;35.17;101905.72;4860048;29;20038;-79
2023/06/16 08:07:08;;;;;;;8.05;4.20;;;;;;;24.44;35.32;101891.97;4858599;29;20487;-78
2023/06/16 08:09:34;;;;;;;11.75;4.82;;;;;;;24.20;35.21;101898.81;4863308;29;20033;-78
2023/06/16 08:11:59;;;;;;;7.60;4.50;;;;;;;24.18;35.77;101897.28;4864039;29;20082;-78
2023/06/16 08:14:26;;;;;;;13.35;4.95;;;;;;;24.24;35.74;101894.03;4863992;29;20382;-77
2023/06/16 08:16:51;;;;;;;9.57;4.70;;;;;;;24.22;34.90;101894.19;4863726;29;20104;-77
2023/06/16 08:19:16;;;;;;;10.68;4.43;;;;;;;24.00;36.00;101857.84;4863628;29;20108;-78
2023/06/16 08:21:41;;;;;;;7.35;4.35;;;;;;;24.04;33.79;101889.00;4863476;29;20430;-79
2023/06/16 08:24:07;;;;;;;5.78;3.92;;;;;;;24.00;35.67;101892.97;4863703;29;20450;-77
2023/06/16 08:26:32;;;;;;;7.05;4.38;;;;;;;24.17;35.33;101887.72;4863678;29;20030;-76
2023/06/16 08:28:58;;;;;;;6.28;3.75;;;;;;;24.03;35.42;101863.59;4863475;29;20097;-76
2023/06/16 08:31:23;;;;;;;7.15;4.05;;;;;;;24.04;37.29;101890.81;4863585;29;20117;-77
2023/06/16 08:33:50;;;;;;;6.70;3.80;;;;;;;24.09;36.73;101887.69;4863533;29;20033;-77
2023/06/16 08:36:16;;;;;;;6.47;3.97;;;;;;;24.12;35.08;101876.84;4863306;29;20033;-77
2023/06/16 08:38:41;;;;;;;7.05;4.55;;;;;;;24.20;34.40;101872.41;4863249;29;20038;-79
2023/06/16 08:41:07;;;;;;;7.32;4.10;;;;;;;24.33;34.28;101889.63;4863427;29;20025;-79
2023/06/16 08:43:38;;;;;;;6.55;4.28;;;;;;;24.29;33.90;101897.84;4863158;29;20390;-80
2023/06/16 08:46:08;;;;;;;6.78;4.03;;;;;;;24.25;32.55;101890.41;4863430;29;20033;-80
2023/06/16 08:48:36;;;;;;;8.23;3.97;;;;;;;23.96;33.97;101862.59;4863297;29;20053;-80
2023/06/16 08:51:03;;;;;;;5.55;3.70;;;;;;;23.98;34.01;101884.34;4863150;29;20045;-79
2023/06/16 08:53:33;;;;;;;6.07;3.55;;;;;;;23.86;31.68;101883.00;4863269;29;20094;-80
2023/06/16 08:56:00;;;;;;;6.25;3.88;;;;;;;23.77;32.81;101862.81;4863285;29;20077;-80
2023/06/16 08:58:27;;;;;;;5.45;3.75;;;;;;;23.93;32.07;101851.53;4863080;29;20053;-80
2023/06/16 09:00:53;;;;;;;8.85;4.18;;;;;;;23.93;32.07;101881.38;4863056;29;20025;-80
2023/06/16 09:03:19;;;;;;;6.07;3.72;;;;;;;23.91;33.13;101853.50;4863040;29;20147;-80
2023/06/16 09:05:46;;;;;;;6.97;3.58;;;;;;;24.34;32.77;101889.47;4862974;29;20021;-79
2023/06/16 09:08:11;;;;;;;7.53;3.97;;;;;;;24.43;32.22;101883.22;4862650;29;20030;-80
2023/06/16 09:10:37;;;;;;;5.20;3.72;;;;;;;24.48;31.00;101875.66;4862863;29;20037;-80
2023/06/16 09:13:02;;;;;;;6.32;3.50;;;;;;;24.50;30.70;101889.53;4862828;29;20502;-80
2023/06/16 09:15:28;;;;;;;5.95;3.78;;;;;;;24.44;31.04;101869.03;4862983;29;20040;-80
2023/06/16 09:17:56;;;;;;;6.20;3.90;;;;;;;24.25;30.41;101870.09;4862848;29;20513;-80
2023/06/16 09:20:23;;;;;;;7.70;3.88;;;;;;;24.46;32.32;101889.97;4862276;29;20030;-80
2023/06/16 09:22:49;;;;;;;7.10;3.55;;;;;;;24.41;30.94;101885.19;4862522;29;20055;-80
2023/06/16 09:25:16;;;;;;;6.32;3.95;;;;;;;24.56;31.02;101888.03;4862563;29;20494;-80
2023/06/16 09:27:50;;;;;;;7.30;4.05;;;;;;;24.64;31.34;101887.22;4862471;29;20049;-80
2023/06/16 09:30:18;;;;;;;6.65;3.65;;;;;;;24.61;30.25;101896.31;4862497;29;20054;-80
2023/06/16 09:32:48;;;;;;;5.55;3.72;;;;;;;24.51;29.31;101885.06;4862553;29;20505;-83
2023/06/16 09:35:43;;;;;;;8.30;3.88;;;;;;;24.63;31.38;101870.53;4862278;29;20081;-81
2023/06/16 09:38:10;;;;;;;6.07;3.80;;;;;;;24.74;31.30;101864.13;4805238;29;20129;-81
2023/06/16 09:40:38;;;;;;;6.03;4.00;;;;;;;24.93;31.15;101884.09;4805324;29;20494;-83
2023/06/16 09:43:08;;;;;;;6.10;3.70;;;;;;;24.90;29.46;101872.06;4805402;29;20035;-81
2023/06/16 09:45:34;;;;;;;6.43;4.00;;;;;;;24.85;29.30;101867.25;4805276;29;20537;-80
2023/06/16 09:48:04;;;;;;;6.05;3.50;;;;;;;24.67;29.67;101841.97;4803869;29;20142;-82
2023/06/16 09:50:30;;;;;;;6.57;4.07;;;;;;;24.73;29.17;101851.91;4806117;29;20031;-80
2023/06/16 09:52:56;;;;;;;7.55;3.97;;;;;;;24.89;33.56;101879.16;4805619;29;20292;-81
2023/06/16 09:55:27;;;;;;;5.32;3.55;;;;;;;24.83;30.21;101871.06;4805033;29;20492;-81
2023/06/16 09:57:53;;;;;;;7.40;3.77;;;;;;;24.78;30.37;101839.03;4790784;29;20045;-80
2023/06/16 10:00:18;;;;;;;5.32;3.90;;;;;;;24.84;30.68;101849.75;4805118;29;20035;-79
2023/06/16 10:02:52;;;;;;;9.45;3.78;;;;;;;24.77;31.33;101851.38;4789908;29;20424;-78
2023/06/16 10:05:18;;;;;;;7.38;4.25;;;;;;;24.53;29.46;101849.56;4805009;29;20408;-80
2023/06/16 10:07:49;;;;;;;7.18;4.25;;;;;;;24.53;29.79;101872.50;4805019;29;20138;-80
2023/06/16 10:10:15;;;;;;;7.60;4.20;;;;;;;24.48;30.95;101856.31;4789735;29;20118;-79
2023/06/16 10:12:45;;;;;;;4.45;3.22;;;;;;;24.81;31.30;101854.56;4805002;29;20033;-79
2023/06/16 10:15:18;;;;;;;6.72;4.00;;;;;;;25.24;31.96;101863.13;4849096;29;20066;-80
2023/06/16 10:17:46;;;;;;;6.00;3.47;;;;;;;25.34;28.94;101861.97;4861776;29;20120;-79
2023/06/16 10:20:15;;;;;;;7.38;4.13;;;;;;;25.26;29.52;101848.75;4861648;29;20042;-79
2023/06/16 10:22:42;;;;;;;7.53;3.80;;;;;;;25.21;29.95;101824.66;4860187;29;20041;-80
2023/06/16 10:25:08;;;;;;;5.70;3.83;;;;;;;25.36;31.33;101836.16;4861494;29;20044;-79
2023/06/16 10:27:35;;;;;;;5.75;4.03;;;;;;;25.34;29.50;101858.50;4861412;29;20028;-81
2023/06/16 10:30:01;;;;;;;6.55;3.88;;;;;;;25.18;28.89;101851.44;4861091;29;20048;-78
2023/06/16 10:32:27;;;;;;;6.20;3.58;;;;;;;24.71;28.92;101809.81;4844543;29;20033;-79
2023/06/16 10:34:56;;;;;;;6.18;3.63;;;;;;;24.93;29.67;101820.69;4845228;29;20037;-79
2023/06/16 10:37:24;;;;;;;5.65;3.88;;;;;;;25.09;30.51;101855.91;4861104;29;20538;-75
2023/06/16 10:39:54;;;;;;;5.82;4.25;;;;;;;24.90;29.92;101835.06;4861154;29;20065;-78
2023/06/16 10:42:19;;;;;;;6.38;3.72;;;;;;;25.07;31.59;101841.16;4860293;29;20041;-78
2023/06/16 10:44:45;;;;;;;8.80;4.28;;;;;;;25.18;31.27;101840.84;4860146;29;20034;-79
2023/06/16 10:47:10;;;;;;;7.53;4.30;;;;;;;25.18;30.61;101838.22;4861336;29;20057;-78
2023/06/16 10:49:51;;;;;;;5.97;4.05;;;;;;;25.12;31.40;101837.06;4860873;29;20136;-78
2023/06/16 10:52:17;;;;;;;7.00;4.10;;;;;;;25.12;30.16;101837.06;4860708;29;20585;-78
2023/06/16 10:54:44;;;;;;;7.30;4.35;;;;;;;25.05;30.78;101833.41;4861007;29;20040;-80
2023/06/16 10:57:12;;;;;;;7.82;4.20;;;;;;;24.98;30.72;101826.31;4860896;29;20033;-79
2023/06/16 10:59:55;;;;;;;6.05;3.88;;;;;;;25.06;30.56;101837.72;4861007;29;20120;-80
2023/06/16 11:02:23;;;;;;;8.68;4.72;;;;;;;24.88;29.93;101829.13;4860755;29;20101;-78
2023/06/16 11:05:10;;;;;;;5.57;4.00;;;;;;;24.94;31.20;101839.00;4860658;29;20030;-81
2023/06/16 11:07:46;;;;;;;6.82;4.20;;;;;;;25.15;30.06;101827.94;4860543;29;20034;-78
2023/06/16 11:10:24;;;;;;;6.90;4.32;;;;;;;25.10;30.32;101831.13;4860563;29;20138;-79
2023/06/16 11:12:50;;;;;;;5.40;3.92;;;;;;;25.14;29.96;101810.44;4860674;29;20478;-79
2023/06/16 11:15:18;;;;;;;7.05;3.92;;;;;;;25.45;31.32;101827.22;4860727;29;20036;-78
2023/06/16 11:17:44;;;;;;;6.32;4.03;;;;;;;25.67;30.32;101825.69;4860451;29;20033;-78
2023/06/16 11:20:12;;;;;;;6.82;3.95;;;;;;;25.78;29.35;101819.22;4860398;29;20033;-78